sensor_id;sensor_type;location;lat;lon;timestamp;temperature;humidity
20057;DHT22;10189;49.546;7.906;2023-07-29T00:00:43;15.70;99.90
20057;DHT22;10189;49.546;7.906;2023-07-29T00:03:10;15.70;99.90
20057;DHT22;10189;49.546;7.906;2023-07-29T00:05:40;15.70;99.90
20057;DHT22;10189;49.546;7.906;2023-07-29T00:08:06;15.70;99.90
20057;DHT22;10189;49.546;7.906;2023-07-29T00:10:37;15.70;99.90
20057;DHT22;10189;49.546;7.906;2023-07-29T00:13:05;15.70;99.90
20057;DHT22;10189;49.546;7.906;2023-07-29T00:15:32;15.60;99.90
20057;DHT22;10189;49.546;7.906;2023-07-29T00:17:58;15.60;99.90
20057;DHT22;10189;49.546;7.906;2023-07-29T00:20:25;15.60;99.90
20057;DHT22;10189;49.546;7.906;2023-07-29T00:22:51;15.60;99.90
20057;DHT22;10189;49.546;7.906;2023-07-29T00:25:19;15.60;99.90
20057;DHT22;10189;49.546;7.906;2023-07-29T00:27:46;15.50;99.90
20057;DHT22;10189;49.546;7.906;2023-07-29T00:30:13;15.50;99.90
20057;DHT22;10189;49.546;7.906;2023-07-29T00:32:39;15.50;99.90
20057;DHT22;10189;49.546;7.906;2023-07-29T00:35:06;15.40;99.90
20057;DHT22;10189;49.546;7.906;2023-07-29T00:37:33;15.40;99.90
20057;DHT22;10189;49.546;7.906;2023-07-29T00:39:59;15.40;99.90
20057;DHT22;10189;49.546;7.906;2023-07-29T00:42:25;15.50;99.90
20057;DHT22;10189;49.546;7.906;2023-07-29T00:44:51;15.60;99.90
20057;DHT22;10189;49.546;7.906;2023-07-29T00:47:19;15.60;99.90
20057;DHT22;10189;49.546;7.906;2023-07-29T00:49:49;15.60;99.90
20057;DHT22;10189;49.546;7.906;2023-07-29T00:52:17;15.60;99.90
20057;DHT22;10189;49.546;7.906;2023-07-29T00:54:43;15.70;99.90
20057;DHT22;10189;49.546;7.906;2023-07-29T00:57:10;15.70;99.90
20057;DHT22;10189;49.546;7.906;2023-07-29T00:59:40;15.70;99.90
20057;DHT22;10189;49.546;7.906;2023-07-29T01:02:07;15.70;99.90
20057;DHT22;10189;49.546;7.906;2023-07-29T01:04:34;15.80;99.90
20057;DHT22;10189;49.546;7.906;2023-07-29T01:16:39;15.90;99.90
20057;DHT22;10189;49.546;7.906;2023-07-29T01:22:02;16.00;99.90
20057;DHT22;10189;49.546;7.906;2023-07-29T01:24:30;16.10;99.90
20057;DHT22;10189;49.546;7.906;2023-07-29T01:26:56;16.20;99.90
20057;DHT22;10189;49.546;7.906;2023-07-29T01:29:22;16.30;99.90
20057;DHT22;10189;49.546;7.906;2023-07-29T01:31:52;16.30;99.90
20057;DHT22;10189;49.546;7.906;2023-07-29T01:34:56;16.20;99.90
20057;DHT22;10189;49.546;7.906;2023-07-29T01:37:26;16.30;99.90
20057;DHT22;10189;49.546;7.906;2023-07-29T01:39:57;16.30;99.90
20057;DHT22;10189;49.546;7.906;2023-07-29T01:42:26;16.30;99.90
20057;DHT22;10189;49.546;7.906;2023-07-29T01:44:53;16.30;99.90
20057;DHT22;10189;49.546;7.906;2023-07-29T01:47:20;16.30;99.90
20057;DHT22;10189;49.546;7.906;2023-07-29T01:49:48;16.40;99.90
20057;DHT22;10189;49.546;7.906;2023-07-29T01:52:14;16.40;99.90
20057;DHT22;10189;49.546;7.906;2023-07-29T01:54:40;16.40;99.90
20057;DHT22;10189;49.546;7.906;2023-07-29T01:57:06;16.40;99.90
20057;DHT22;10189;49.546;7.906;2023-07-29T01:59:33;16.40;99.90
20057;DHT22;10189;49.546;7.906;2023-07-29T02:02:00;16.40;99.90
20057;DHT22;10189;49.546;7.906;2023-07-29T02:04:26;16.50;99.90
20057;DHT22;10189;49.546;7.906;2023-07-29T02:06:52;16.70;99.90
20057;DHT22;10189;49.546;7.906;2023-07-29T02:09:19;16.80;99.90
20057;DHT22;10189;49.546;7.906;2023-07-29T02:11:45;16.90;99.90
20057;DHT22;10189;49.546;7.906;2023-07-29T02:14:12;17.00;99.90
20057;DHT22;10189;49.546;7.906;2023-07-29T02:16:38;17.00;99.90
20057;DHT22;10189;49.546;7.906;2023-07-29T02:19:05;17.10;99.90
20057;DHT22;10189;49.546;7.906;2023-07-29T02:21:31;17.10;99.90
20057;DHT22;10189;49.546;7.906;2023-07-29T02:23:57;17.20;99.90
20057;DHT22;10189;49.546;7.906;2023-07-29T02:26:23;17.20;99.90
20057;DHT22;10189;49.546;7.906;2023-07-29T02:28:50;17.30;99.90
20057;DHT22;10189;49.546;7.906;2023-07-29T02:31:21;17.30;99.90
20057;DHT22;10189;49.546;7.906;2023-07-29T02:33:48;17.40;99.90
20057;DHT22;10189;49.546;7.906;2023-07-29T02:36:16;17.40;99.90
20057;DHT22;10189;49.546;7.906;2023-07-29T02:38:43;17.40;99.90
20057;DHT22;10189;49.546;7.906;2023-07-29T02:41:10;17.40;99.90
20057;DHT22;10189;49.546;7.906;2023-07-29T02:43:48;17.40;99.90
20057;DHT22;10189;49.546;7.906;2023-07-29T02:46:15;17.40;99.90
20057;DHT22;10189;49.546;7.906;2023-07-29T02:48:43;17.30;99.90
20057;DHT22;10189;49.546;7.906;2023-07-29T02:51:10;17.20;99.90
20057;DHT22;10189;49.546;7.906;2023-07-29T02:53:36;17.10;99.90
20057;DHT22;10189;49.546;7.906;2023-07-29T02:56:05;17.20;99.90
20057;DHT22;10189;49.546;7.906;2023-07-29T02:58:36;17.30;99.90
20057;DHT22;10189;49.546;7.906;2023-07-29T03:01:04;17.30;99.90
20057;DHT22;10189;49.546;7.906;2023-07-29T03:03:32;17.40;99.90
20057;DHT22;10189;49.546;7.906;2023-07-29T03:06:07;17.30;99.90
20057;DHT22;10189;49.546;7.906;2023-07-29T03:08:34;17.30;99.90
20057;DHT22;10189;49.546;7.906;2023-07-29T03:11:10;17.40;99.90
20057;DHT22;10189;49.546;7.906;2023-07-29T03:13:38;17.30;99.90
20057;DHT22;10189;49.546;7.906;2023-07-29T03:18:31;17.30;99.90
20057;DHT22;10189;49.546;7.906;2023-07-29T03:20:57;17.30;99.90
20057;DHT22;10189;49.546;7.906;2023-07-29T03:23:24;17.40;99.90
20057;DHT22;10189;49.546;7.906;2023-07-29T03:25:50;17.40;99.90
20057;DHT22;10189;49.546;7.906;2023-07-29T03:28:18;17.40;99.90
20057;DHT22;10189;49.546;7.906;2023-07-29T03:30:45;17.40;99.90
20057;DHT22;10189;49.546;7.906;2023-07-29T03:33:11;17.40;99.90
20057;DHT22;10189;49.546;7.906;2023-07-29T03:35:37;17.50;99.90
20057;DHT22;10189;49.546;7.906;2023-07-29T03:38:03;17.50;99.90
20057;DHT22;10189;49.546;7.906;2023-07-29T03:40:30;17.40;99.90
20057;DHT22;10189;49.546;7.906;2023-07-29T03:42:56;17.40;99.90
20057;DHT22;10189;49.546;7.906;2023-07-29T03:45:22;17.30;99.90
20057;DHT22;10189;49.546;7.906;2023-07-29T03:47:48;17.30;99.90
20057;DHT22;10189;49.546;7.906;2023-07-29T03:50:15;17.30;99.90
20057;DHT22;10189;49.546;7.906;2023-07-29T03:52:41;17.20;99.90
20057;DHT22;10189;49.546;7.906;2023-07-29T03:55:07;17.30;99.90
20057;DHT22;10189;49.546;7.906;2023-07-29T03:57:34;17.30;99.90
20057;DHT22;10189;49.546;7.906;2023-07-29T04:00:01;17.30;99.90
20057;DHT22;10189;49.546;7.906;2023-07-29T04:02:29;17.30;99.90
20057;DHT22;10189;49.546;7.906;2023-07-29T04:05:11;17.30;99.90
20057;DHT22;10189;49.546;7.906;2023-07-29T04:07:37;17.30;99.90
20057;DHT22;10189;49.546;7.906;2023-07-29T04:10:04;17.20;99.90
20057;DHT22;10189;49.546;7.906;2023-07-29T04:12:31;17.20;99.90
20057;DHT22;10189;49.546;7.906;2023-07-29T04:14:57;17.20;99.90
20057;DHT22;10189;49.546;7.906;2023-07-29T04:17:24;17.30;99.90
20057;DHT22;10189;49.546;7.906;2023-07-29T04:19:50;17.30;99.90
20057;DHT22;10189;49.546;7.906;2023-07-29T04:22:17;17.20;99.90
20057;DHT22;10189;49.546;7.906;2023-07-29T04:24:43;17.20;99.90
20057;DHT22;10189;49.546;7.906;2023-07-29T04:27:10;17.30;99.90
20057;DHT22;10189;49.546;7.906;2023-07-29T04:29:36;17.30;99.90
20057;DHT22;10189;49.546;7.906;2023-07-29T04:32:05;17.30;99.90
20057;DHT22;10189;49.546;7.906;2023-07-29T04:34:33;17.30;99.90
20057;DHT22;10189;49.546;7.906;2023-07-29T04:36:59;17.40;99.90
20057;DHT22;10189;49.546;7.906;2023-07-29T04:39:26;17.40;99.90
20057;DHT22;10189;49.546;7.906;2023-07-29T04:41:52;17.40;99.90
20057;DHT22;10189;49.546;7.906;2023-07-29T04:44:20;17.50;99.90
20057;DHT22;10189;49.546;7.906;2023-07-29T04:46:46;17.60;99.90
20057;DHT22;10189;49.546;7.906;2023-07-29T04:49:12;17.70;99.90
20057;DHT22;10189;49.546;7.906;2023-07-29T04:51:39;17.70;99.90
20057;DHT22;10189;49.546;7.906;2023-07-29T04:54:05;17.80;99.90
20057;DHT22;10189;49.546;7.906;2023-07-29T04:56:31;17.80;99.90
20057;DHT22;10189;49.546;7.906;2023-07-29T04:58:57;17.90;99.90
20057;DHT22;10189;49.546;7.906;2023-07-29T05:01:23;18.00;99.90
20057;DHT22;10189;49.546;7.906;2023-07-29T05:03:51;18.10;99.90
20057;DHT22;10189;49.546;7.906;2023-07-29T05:06:18;18.10;99.90
20057;DHT22;10189;49.546;7.906;2023-07-29T05:08:44;18.00;99.90
20057;DHT22;10189;49.546;7.906;2023-07-29T05:11:10;18.10;99.90
20057;DHT22;10189;49.546;7.906;2023-07-29T05:13:37;18.10;99.90
20057;DHT22;10189;49.546;7.906;2023-07-29T05:16:04;18.20;99.90
20057;DHT22;10189;49.546;7.906;2023-07-29T05:18:30;18.20;99.90
20057;DHT22;10189;49.546;7.906;2023-07-29T05:20:57;18.20;99.90
20057;DHT22;10189;49.546;7.906;2023-07-29T05:23:24;18.10;99.90
20057;DHT22;10189;49.546;7.906;2023-07-29T05:25:54;18.20;99.90
20057;DHT22;10189;49.546;7.906;2023-07-29T05:28:20;18.20;99.90
20057;DHT22;10189;49.546;7.906;2023-07-29T05:30:47;18.30;99.90
20057;DHT22;10189;49.546;7.906;2023-07-29T05:33:14;18.20;99.90
20057;DHT22;10189;49.546;7.906;2023-07-29T05:35:40;18.30;99.90
20057;DHT22;10189;49.546;7.906;2023-07-29T05:38:07;18.40;99.90
20057;DHT22;10189;49.546;7.906;2023-07-29T05:40:34;18.40;99.90
20057;DHT22;10189;49.546;7.906;2023-07-29T05:43:00;18.40;99.90
20057;DHT22;10189;49.546;7.906;2023-07-29T05:45:27;18.40;99.90
20057;DHT22;10189;49.546;7.906;2023-07-29T05:47:53;18.50;99.90
20057;DHT22;10189;49.546;7.906;2023-07-29T05:50:20;18.60;99.90
20057;DHT22;10189;49.546;7.906;2023-07-29T05:52:46;18.60;99.90
20057;DHT22;10189;49.546;7.906;2023-07-29T05:55:12;18.60;99.90
20057;DHT22;10189;49.546;7.906;2023-07-29T05:57:39;18.50;99.90
20057;DHT22;10189;49.546;7.906;2023-07-29T06:00:07;18.50;99.90
20057;DHT22;10189;49.546;7.906;2023-07-29T06:02:38;18.50;99.90
20057;DHT22;10189;49.546;7.906;2023-07-29T06:05:09;18.50;99.90
20057;DHT22;10189;49.546;7.906;2023-07-29T06:07:35;18.50;99.90
20057;DHT22;10189;49.546;7.906;2023-07-29T06:10:01;18.50;99.90
20057;DHT22;10189;49.546;7.906;2023-07-29T06:12:31;18.50;99.90
20057;DHT22;10189;49.546;7.906;2023-07-29T06:14:57;18.50;99.90
20057;DHT22;10189;49.546;7.906;2023-07-29T06:17:24;18.60;99.90
20057;DHT22;10189;49.546;7.906;2023-07-29T06:19:50;18.60;99.90
20057;DHT22;10189;49.546;7.906;2023-07-29T06:22:16;18.70;99.90
20057;DHT22;10189;49.546;7.906;2023-07-29T06:24:43;18.80;99.90
20057;DHT22;10189;49.546;7.906;2023-07-29T06:27:09;18.90;99.90
20057;DHT22;10189;49.546;7.906;2023-07-29T06:29:35;19.00;99.90
20057;DHT22;10189;49.546;7.906;2023-07-29T06:32:01;18.90;99.90
20057;DHT22;10189;49.546;7.906;2023-07-29T06:34:27;18.90;99.90
20057;DHT22;10189;49.546;7.906;2023-07-29T06:36:53;18.80;99.90
20057;DHT22;10189;49.546;7.906;2023-07-29T06:39:19;18.80;99.90
20057;DHT22;10189;49.546;7.906;2023-07-29T06:41:45;18.80;99.90
20057;DHT22;10189;49.546;7.906;2023-07-29T06:44:12;18.80;99.90
20057;DHT22;10189;49.546;7.906;2023-07-29T06:46:38;18.80;99.90
20057;DHT22;10189;49.546;7.906;2023-07-29T06:49:05;18.70;99.90
20057;DHT22;10189;49.546;7.906;2023-07-29T06:51:31;18.60;99.90
20057;DHT22;10189;49.546;7.906;2023-07-29T06:54:00;18.50;99.90
20057;DHT22;10189;49.546;7.906;2023-07-29T06:56:29;18.40;99.90
20057;DHT22;10189;49.546;7.906;2023-07-29T06:58:55;18.20;99.90
20057;DHT22;10189;49.546;7.906;2023-07-29T07:01:21;18.10;99.90
20057;DHT22;10189;49.546;7.906;2023-07-29T07:03:47;17.80;99.90
20057;DHT22;10189;49.546;7.906;2023-07-29T07:06:13;17.60;99.90
20057;DHT22;10189;49.546;7.906;2023-07-29T07:08:39;17.50;99.90
20057;DHT22;10189;49.546;7.906;2023-07-29T07:11:04;17.40;99.90
20057;DHT22;10189;49.546;7.906;2023-07-29T07:13:30;17.20;99.90
20057;DHT22;10189;49.546;7.906;2023-07-29T07:15:56;17.20;99.90
20057;DHT22;10189;49.546;7.906;2023-07-29T07:18:23;17.00;99.90
20057;DHT22;10189;49.546;7.906;2023-07-29T07:20:49;17.00;99.90
20057;DHT22;10189;49.546;7.906;2023-07-29T07:23:16;16.90;99.90
20057;DHT22;10189;49.546;7.906;2023-07-29T07:25:42;16.80;99.90
20057;DHT22;10189;49.546;7.906;2023-07-29T07:28:09;16.80;99.90
20057;DHT22;10189;49.546;7.906;2023-07-29T07:30:39;16.80;99.90
20057;DHT22;10189;49.546;7.906;2023-07-29T07:33:07;16.70;99.90
20057;DHT22;10189;49.546;7.906;2023-07-29T07:35:33;16.70;99.90
20057;DHT22;10189;49.546;7.906;2023-07-29T07:37:59;16.50;99.90
20057;DHT22;10189;49.546;7.906;2023-07-29T07:40:27;16.50;99.90
20057;DHT22;10189;49.546;7.906;2023-07-29T07:42:53;16.50;99.90
20057;DHT22;10189;49.546;7.906;2023-07-29T07:45:19;16.60;99.90
20057;DHT22;10189;49.546;7.906;2023-07-29T07:47:45;16.80;99.90
20057;DHT22;10189;49.546;7.906;2023-07-29T07:50:11;17.10;99.90
20057;DHT22;10189;49.546;7.906;2023-07-29T07:52:39;17.30;99.90
20057;DHT22;10189;49.546;7.906;2023-07-29T07:55:05;17.80;99.90
20057;DHT22;10189;49.546;7.906;2023-07-29T07:57:32;18.30;99.90
20057;DHT22;10189;49.546;7.906;2023-07-29T07:59:57;18.70;99.00
20057;DHT22;10189;49.546;7.906;2023-07-29T08:02:23;19.00;95.90
20057;DHT22;10189;49.546;7.906;2023-07-29T08:04:49;19.30;95.10
20057;DHT22;10189;49.546;7.906;2023-07-29T08:07:15;19.60;94.00
20057;DHT22;10189;49.546;7.906;2023-07-29T08:09:41;19.70;91.90
20057;DHT22;10189;49.546;7.906;2023-07-29T08:12:07;20.10;92.70
20057;DHT22;10189;49.546;7.906;2023-07-29T08:14:33;20.50;91.50
20057;DHT22;10189;49.546;7.906;2023-07-29T08:16:58;20.90;89.90
20057;DHT22;10189;49.546;7.906;2023-07-29T08:19:24;20.90;86.00
20057;DHT22;10189;49.546;7.906;2023-07-29T08:21:50;20.90;87.10
20057;DHT22;10189;49.546;7.906;2023-07-29T08:24:16;20.80;90.70
20057;DHT22;10189;49.546;7.906;2023-07-29T08:26:42;20.80;88.70
20057;DHT22;10189;49.546;7.906;2023-07-29T08:29:08;20.60;89.00
20057;DHT22;10189;49.546;7.906;2023-07-29T08:31:33;20.50;90.30
20057;DHT22;10189;49.546;7.906;2023-07-29T08:34:00;20.40;89.50
20057;DHT22;10189;49.546;7.906;2023-07-29T08:36:26;20.40;91.30
20057;DHT22;10189;49.546;7.906;2023-07-29T08:38:52;20.30;91.60
20057;DHT22;10189;49.546;7.906;2023-07-29T08:41:45;20.30;91.70
20057;DHT22;10189;49.546;7.906;2023-07-29T08:44:26;20.30;92.80
20057;DHT22;10189;49.546;7.906;2023-07-29T08:46:56;20.40;91.60
20057;DHT22;10189;49.546;7.906;2023-07-29T08:49:23;20.50;90.10
20057;DHT22;10189;49.546;7.906;2023-07-29T08:51:50;20.70;92.20
20057;DHT22;10189;49.546;7.906;2023-07-29T08:54:19;21.10;91.00
20057;DHT22;10189;49.546;7.906;2023-07-29T08:56:45;21.20;89.40
20057;DHT22;10189;49.546;7.906;2023-07-29T08:59:13;20.90;88.10
20057;DHT22;10189;49.546;7.906;2023-07-29T09:01:40;20.80;91.90
20057;DHT22;10189;49.546;7.906;2023-07-29T09:04:06;21.00;94.90
20057;DHT22;10189;49.546;7.906;2023-07-29T09:06:33;21.20;92.30
20057;DHT22;10189;49.546;7.906;2023-07-29T09:09:02;21.50;89.60
20057;DHT22;10189;49.546;7.906;2023-07-29T09:11:28;21.70;88.10
20057;DHT22;10189;49.546;7.906;2023-07-29T09:13:54;22.20;84.70
20057;DHT22;10189;49.546;7.906;2023-07-29T09:16:21;22.70;82.40
20057;DHT22;10189;49.546;7.906;2023-07-29T09:18:48;23.00;84.80
20057;DHT22;10189;49.546;7.906;2023-07-29T09:21:24;23.10;84.20
20057;DHT22;10189;49.546;7.906;2023-07-29T09:23:52;23.30;83.00
20057;DHT22;10189;49.546;7.906;2023-07-29T09:26:28;23.50;80.80
20057;DHT22;10189;49.546;7.906;2023-07-29T09:28:56;23.70;78.70
20057;DHT22;10189;49.546;7.906;2023-07-29T09:31:24;23.60;78.10
20057;DHT22;10189;49.546;7.906;2023-07-29T09:33:58;23.10;77.90
20057;DHT22;10189;49.546;7.906;2023-07-29T09:36:25;22.80;80.20
20057;DHT22;10189;49.546;7.906;2023-07-29T09:38:56;22.40;79.90
20057;DHT22;10189;49.546;7.906;2023-07-29T09:41:23;22.10;84.40
20057;DHT22;10189;49.546;7.906;2023-07-29T09:44:04;22.10;81.80
20057;DHT22;10189;49.546;7.906;2023-07-29T09:46:37;22.30;81.60
20057;DHT22;10189;49.546;7.906;2023-07-29T09:49:05;22.40;81.20
20057;DHT22;10189;49.546;7.906;2023-07-29T09:51:37;22.60;80.90
20057;DHT22;10189;49.546;7.906;2023-07-29T09:54:04;22.60;80.10
20057;DHT22;10189;49.546;7.906;2023-07-29T09:56:31;22.50;79.30
20057;DHT22;10189;49.546;7.906;2023-07-29T09:58:57;22.60;81.70
20057;DHT22;10189;49.546;7.906;2023-07-29T10:01:23;23.20;80.20
20057;DHT22;10189;49.546;7.906;2023-07-29T10:03:50;23.60;72.80
20057;DHT22;10189;49.546;7.906;2023-07-29T10:06:17;23.60;75.10
20057;DHT22;10189;49.546;7.906;2023-07-29T10:08:45;23.90;74.40
20057;DHT22;10189;49.546;7.906;2023-07-29T10:11:11;24.10;76.60
20057;DHT22;10189;49.546;7.906;2023-07-29T10:13:38;24.40;73.80
20057;DHT22;10189;49.546;7.906;2023-07-29T10:16:05;24.60;75.70
20057;DHT22;10189;49.546;7.906;2023-07-29T10:18:32;24.90;76.60
20057;DHT22;10189;49.546;7.906;2023-07-29T10:21:00;25.00;70.50
20057;DHT22;10189;49.546;7.906;2023-07-29T10:23:32;25.20;72.00
20057;DHT22;10189;49.546;7.906;2023-07-29T10:26:04;25.10;69.30
20057;DHT22;10189;49.546;7.906;2023-07-29T10:28:32;25.00;68.50
20057;DHT22;10189;49.546;7.906;2023-07-29T10:31:00;25.00;71.00
20057;DHT22;10189;49.546;7.906;2023-07-29T10:33:26;25.00;68.10
20057;DHT22;10189;49.546;7.906;2023-07-29T10:35:53;25.30;63.80
20057;DHT22;10189;49.546;7.906;2023-07-29T10:38:24;25.20;63.10
20057;DHT22;10189;49.546;7.906;2023-07-29T10:40:55;24.50;61.90
20057;DHT22;10189;49.546;7.906;2023-07-29T10:43:38;24.20;63.50
20057;DHT22;10189;49.546;7.906;2023-07-29T10:46:21;23.50;63.60
20057;DHT22;10189;49.546;7.906;2023-07-29T10:48:56;23.20;66.20
20057;DHT22;10189;49.546;7.906;2023-07-29T10:51:30;22.90;65.60
20057;DHT22;10189;49.546;7.906;2023-07-29T10:54:13;22.90;68.30
20057;DHT22;10189;49.546;7.906;2023-07-29T10:56:41;23.30;69.00
20057;DHT22;10189;49.546;7.906;2023-07-29T11:02:15;24.00;67.60
20057;DHT22;10189;49.546;7.906;2023-07-29T11:04:51;24.20;64.80
20057;DHT22;10189;49.546;7.906;2023-07-29T11:09:53;24.20;63.20
20057;DHT22;10189;49.546;7.906;2023-07-29T11:12:40;24.00;65.20
20057;DHT22;10189;49.546;7.906;2023-07-29T11:15:27;24.50;68.00
20057;DHT22;10189;49.546;7.906;2023-07-29T11:20:25;25.30;64.30
20057;DHT22;10189;49.546;7.906;2023-07-29T11:22:54;25.50;62.40
20057;DHT22;10189;49.546;7.906;2023-07-29T11:25:21;25.60;63.90
20057;DHT22;10189;49.546;7.906;2023-07-29T11:27:50;25.90;60.50
20057;DHT22;10189;49.546;7.906;2023-07-29T11:30:17;25.70;58.60
20057;DHT22;10189;49.546;7.906;2023-07-29T11:32:44;25.40;60.00
20057;DHT22;10189;49.546;7.906;2023-07-29T11:35:16;25.40;57.60
20057;DHT22;10189;49.546;7.906;2023-07-29T11:37:50;25.00;59.60
20057;DHT22;10189;49.546;7.906;2023-07-29T11:40:21;24.70;58.60
20057;DHT22;10189;49.546;7.906;2023-07-29T11:42:48;24.30;59.00
20057;DHT22;10189;49.546;7.906;2023-07-29T11:45:16;23.80;60.60
20057;DHT22;10189;49.546;7.906;2023-07-29T11:47:43;23.40;63.30
20057;DHT22;10189;49.546;7.906;2023-07-29T11:50:11;23.30;64.00
20057;DHT22;10189;49.546;7.906;2023-07-29T11:52:42;23.30;64.10
20057;DHT22;10189;49.546;7.906;2023-07-29T11:55:12;23.60;63.20
20057;DHT22;10189;49.546;7.906;2023-07-29T11:57:39;24.00;66.40
20057;DHT22;10189;49.546;7.906;2023-07-29T12:00:08;24.20;61.20
20057;DHT22;10189;49.546;7.906;2023-07-29T12:02:37;24.10;61.40
20057;DHT22;10189;49.546;7.906;2023-07-29T12:05:05;24.00;59.40
20057;DHT22;10189;49.546;7.906;2023-07-29T12:07:34;24.10;61.60
20057;DHT22;10189;49.546;7.906;2023-07-29T12:10:01;24.40;58.00
20057;DHT22;10189;49.546;7.906;2023-07-29T12:12:29;24.70;59.50
20057;DHT22;10189;49.546;7.906;2023-07-29T12:14:55;24.70;59.20
20057;DHT22;10189;49.546;7.906;2023-07-29T12:17:21;24.30;58.60
20057;DHT22;10189;49.546;7.906;2023-07-29T12:19:47;24.00;59.60
20057;DHT22;10189;49.546;7.906;2023-07-29T12:22:18;23.70;59.70
20057;DHT22;10189;49.546;7.906;2023-07-29T12:24:45;23.70;63.00
20057;DHT22;10189;49.546;7.906;2023-07-29T12:27:14;23.90;60.00
20057;DHT22;10189;49.546;7.906;2023-07-29T12:29:43;23.80;62.10
20057;DHT22;10189;49.546;7.906;2023-07-29T12:32:12;23.80;62.60
20057;DHT22;10189;49.546;7.906;2023-07-29T12:34:38;23.90;61.80
20057;DHT22;10189;49.546;7.906;2023-07-29T12:37:05;24.00;60.10
20057;DHT22;10189;49.546;7.906;2023-07-29T12:39:34;23.90;60.90
20057;DHT22;10189;49.546;7.906;2023-07-29T12:42:05;24.10;61.80
20057;DHT22;10189;49.546;7.906;2023-07-29T12:44:33;24.40;59.20
20057;DHT22;10189;49.546;7.906;2023-07-29T12:47:02;24.80;61.10
20057;DHT22;10189;49.546;7.906;2023-07-29T12:49:30;24.90;57.70
20057;DHT22;10189;49.546;7.906;2023-07-29T12:51:57;25.00;57.50
20057;DHT22;10189;49.546;7.906;2023-07-29T12:54:24;25.00;61.00
20057;DHT22;10189;49.546;7.906;2023-07-29T12:56:51;24.90;57.00
20057;DHT22;10189;49.546;7.906;2023-07-29T12:59:17;24.70;58.10
20057;DHT22;10189;49.546;7.906;2023-07-29T13:01:43;24.40;59.80
20057;DHT22;10189;49.546;7.906;2023-07-29T13:04:12;24.10;59.10
20057;DHT22;10189;49.546;7.906;2023-07-29T13:06:38;24.00;60.50
20057;DHT22;10189;49.546;7.906;2023-07-29T13:09:04;24.00;61.20
20057;DHT22;10189;49.546;7.906;2023-07-29T13:11:31;24.30;59.30
20057;DHT22;10189;49.546;7.906;2023-07-29T13:13:58;24.60;58.90
20057;DHT22;10189;49.546;7.906;2023-07-29T13:16:26;24.60;56.70
20057;DHT22;10189;49.546;7.906;2023-07-29T13:18:53;24.50;56.60
20057;DHT22;10189;49.546;7.906;2023-07-29T13:21:19;24.60;58.00
20057;DHT22;10189;49.546;7.906;2023-07-29T13:23:44;24.80;59.00
20057;DHT22;10189;49.546;7.906;2023-07-29T13:26:11;24.70;59.80
20057;DHT22;10189;49.546;7.906;2023-07-29T13:28:37;24.70;59.30
20057;DHT22;10189;49.546;7.906;2023-07-29T13:31:02;25.00;57.90
20057;DHT22;10189;49.546;7.906;2023-07-29T13:33:28;25.40;60.00
20057;DHT22;10189;49.546;7.906;2023-07-29T13:35:59;25.60;58.20
20057;DHT22;10189;49.546;7.906;2023-07-29T13:38:28;25.70;57.80
20057;DHT22;10189;49.546;7.906;2023-07-29T13:40:54;25.80;57.70
20057;DHT22;10189;49.546;7.906;2023-07-29T13:43:20;25.80;57.20
20057;DHT22;10189;49.546;7.906;2023-07-29T13:45:46;25.90;58.40
20057;DHT22;10189;49.546;7.906;2023-07-29T13:48:14;26.00;56.30
20057;DHT22;10189;49.546;7.906;2023-07-29T13:50:40;25.80;55.30
20057;DHT22;10189;49.546;7.906;2023-07-29T13:53:06;25.70;56.00
20057;DHT22;10189;49.546;7.906;2023-07-29T13:55:32;25.50;57.10
20057;DHT22;10189;49.546;7.906;2023-07-29T13:57:58;25.30;54.30
20057;DHT22;10189;49.546;7.906;2023-07-29T14:00:25;25.30;56.90
20057;DHT22;10189;49.546;7.906;2023-07-29T14:02:51;25.40;56.50
20057;DHT22;10189;49.546;7.906;2023-07-29T14:05:16;25.20;57.60
20057;DHT22;10189;49.546;7.906;2023-07-29T14:07:42;25.20;58.10
20057;DHT22;10189;49.546;7.906;2023-07-29T14:10:08;24.90;57.50
20057;DHT22;10189;49.546;7.906;2023-07-29T14:12:34;24.70;59.20
20057;DHT22;10189;49.546;7.906;2023-07-29T14:15:00;24.50;59.60
20057;DHT22;10189;49.546;7.906;2023-07-29T14:17:26;24.50;58.80
20057;DHT22;10189;49.546;7.906;2023-07-29T14:19:52;24.40;58.60
20057;DHT22;10189;49.546;7.906;2023-07-29T14:22:18;24.40;60.40
20057;DHT22;10189;49.546;7.906;2023-07-29T14:24:44;24.40;59.40
20057;DHT22;10189;49.546;7.906;2023-07-29T14:27:10;24.70;59.30
20057;DHT22;10189;49.546;7.906;2023-07-29T14:29:35;25.30;59.80
20057;DHT22;10189;49.546;7.906;2023-07-29T14:32:01;25.60;57.60
20057;DHT22;10189;49.546;7.906;2023-07-29T14:34:28;25.70;56.90
20057;DHT22;10189;49.546;7.906;2023-07-29T14:36:54;25.50;57.60
20057;DHT22;10189;49.546;7.906;2023-07-29T14:39:20;25.40;57.90
20057;DHT22;10189;49.546;7.906;2023-07-29T14:41:46;25.20;58.20
20057;DHT22;10189;49.546;7.906;2023-07-29T14:44:12;24.90;57.90
20057;DHT22;10189;49.546;7.906;2023-07-29T14:50:39;25.00;58.90
20057;DHT22;10189;49.546;7.906;2023-07-29T14:53:05;25.10;58.60
20057;DHT22;10189;49.546;7.906;2023-07-29T14:55:31;25.20;58.00
20057;DHT22;10189;49.546;7.906;2023-07-29T14:57:57;25.50;57.20
20057;DHT22;10189;49.546;7.906;2023-07-29T15:00:23;25.50;57.20
20057;DHT22;10189;49.546;7.906;2023-07-29T15:02:49;25.50;58.00
20057;DHT22;10189;49.546;7.906;2023-07-29T15:05:15;25.40;57.70
20057;DHT22;10189;49.546;7.906;2023-07-29T15:07:41;25.40;57.20
20057;DHT22;10189;49.546;7.906;2023-07-29T15:10:07;25.40;57.40
20057;DHT22;10189;49.546;7.906;2023-07-29T15:12:33;25.40;56.60
20057;DHT22;10189;49.546;7.906;2023-07-29T15:14:59;25.40;54.90
20057;DHT22;10189;49.546;7.906;2023-07-29T15:17:25;25.60;55.30
20057;DHT22;10189;49.546;7.906;2023-07-29T15:19:51;25.60;54.10
20057;DHT22;10189;49.546;7.906;2023-07-29T15:22:17;25.40;54.90
20057;DHT22;10189;49.546;7.906;2023-07-29T15:24:43;25.30;55.00
20057;DHT22;10189;49.546;7.906;2023-07-29T15:27:10;25.40;55.50
20057;DHT22;10189;49.546;7.906;2023-07-29T15:29:36;25.20;56.00
20057;DHT22;10189;49.546;7.906;2023-07-29T15:32:02;25.10;57.20
20057;DHT22;10189;49.546;7.906;2023-07-29T15:34:29;24.90;56.50
20057;DHT22;10189;49.546;7.906;2023-07-29T15:36:57;25.00;58.50
20057;DHT22;10189;49.546;7.906;2023-07-29T15:39:24;25.10;58.00
20057;DHT22;10189;49.546;7.906;2023-07-29T15:41:50;25.30;58.40
20057;DHT22;10189;49.546;7.906;2023-07-29T15:44:16;25.50;56.80
20057;DHT22;10189;49.546;7.906;2023-07-29T15:46:42;25.70;57.10
20057;DHT22;10189;49.546;7.906;2023-07-29T15:49:08;25.60;55.00
20057;DHT22;10189;49.546;7.906;2023-07-29T15:51:35;25.60;56.40
20057;DHT22;10189;49.546;7.906;2023-07-29T15:54:01;25.30;55.20
20057;DHT22;10189;49.546;7.906;2023-07-29T15:56:28;25.20;56.10
20057;DHT22;10189;49.546;7.906;2023-07-29T15:58:56;25.10;56.90